KEFD/EFD METAR and TAF weather

Enter ICAO airport designator
Station Type Date Time Source
KEFD METAR 2019/02/23 01:50 UTC NOAA

KEFD 230150Z 16005KT 3/8SM FG VV003 22/21 A2990


Station Type Date Time Source
KEFD Decoded METAR 2019/02/23 01:50 UTC NOAA

Houston / Ellington, TX, United States (KEFD) 29-36N 095-10W
Feb 22, 2019 - 08:50 PM EST / 2019.02.23 0150 UTC
Wind: from the SSE (160 degrees) at 6 MPH (5 KT):0
Visibility: 3/8 mile(s):0
Sky conditions: obscured
Weather: fog
Temperature: 71 F (22 C)
Dew Point: 69 F (21 C)
Relative Humidity: 94%
Pressure (altimeter): 29.9 in. Hg (1012 hPa)
ob: KEFD 230150Z 16005KT 3/8SM FG VV003 22/21 A2990
cycle: 2

Station Type Date Time Source
KEFD TAF 2019/02/23 01:10 UTC NOAA

TAF
AMD KEFD 230100Z 2301/2402 15006KT 0800 FG OVC003 QNH2986INS
BECMG 2314/2315 18009KT 4800 -SHRA OVC003 QNH2994INS
TEMPO 2315/2318 18015G25KT 3200 -TSRA OVC003CB
BECMG 2318/2319 30015G20KT 4800 -SHRA BKN010 QNH2993INS
BECMG 2320/2321 29010G15KT 9999 NSW BKN200 QNH2994INS
BECMG 2323/2324 29006KT 9999 SCT240 QNH2997INS TX22/2301Z TN16/2303Z


Example: see airport list